Time;durP1;ratioP1;P1;durP2;ratioP2;P2;SDS_P1;SDS_P2;PMS_P1;PMS_P2;Temp;Humidity;BMP_temperature;BMP_pressure;BME280_temperature;BME280_humidity;BME280_pressure;Samples;Min_cycle;Max_cycle;Signal;HPM_P1;HPM_P2
2022/08/19 00:00:32;;;;;;;;;;;17.80;99.90;;;;;;5030318;28;40228;-76
2022/08/19 00:02:58;;;;;;;;;;;17.80;99.90;;;;;;5038641;28;39363;-76
2022/08/19 00:05:24;;;;;;;;;;;17.80;99.90;;;;;;5040343;28;39272;-76
2022/08/19 00:07:50;;;;;;;;;;;17.80;99.90;;;;;;5037077;28;37385;-76
2022/08/19 00:10:17;;;;;;;;;;;17.70;99.90;;;;;;5037432;28;38193;-76
2022/08/19 00:12:43;;;;;;;;;;;17.70;99.90;;;;;;5034911;28;39356;-76
2022/08/19 00:15:13;;;;;;;;;;;17.70;99.90;;;;;;5038329;28;38951;-76
2022/08/19 00:17:41;;;;;;;;;;;17.70;99.90;;;;;;5037017;28;37443;-76
2022/08/19 00:20:07;;;;;;;;;;;17.70;99.90;;;;;;5037766;28;40366;-76
2022/08/19 00:22:34;;;;;;;;;;;17.70;99.90;;;;;;5041560;28;39337;-76
2022/08/19 00:25:00;;;;;;;;;;;17.70;99.90;;;;;;5042192;28;37762;-77
2022/08/19 00:27:26;;;;;;;;;;;17.70;99.90;;;;;;5038351;28;37262;-76
2022/08/19 00:29:52;;;;;;;;;;;17.70;99.90;;;;;;5034528;28;38120;-76
2022/08/19 00:32:18;;;;;;;;;;;17.70;99.90;;;;;;5035231;28;39161;-75
2022/08/19 00:34:44;;;;;;;;;;;17.70;99.90;;;;;;5040752;28;36746;-76
2022/08/19 00:37:10;;;;;;;;;;;17.70;99.90;;;;;;5038599;28;33826;-75
2022/08/19 00:39:36;;;;;;;;;;;17.60;99.90;;;;;;5033122;28;38905;-76
2022/08/19 00:42:02;;;;;;;;;;;17.60;99.90;;;;;;5037859;27;38195;-77
2022/08/19 00:44:28;;;;;;;;;;;17.60;99.90;;;;;;5048855;28;37642;-75
2022/08/19 00:46:56;;;;;;;;;;;17.50;99.90;;;;;;5036851;28;36528;-75
2022/08/19 00:49:25;;;;;;;;;;;17.50;99.90;;;;;;5042773;28;39379;-75
2022/08/19 00:51:52;;;;;;;;;;;17.50;99.90;;;;;;5033490;28;38880;-75
2022/08/19 00:54:19;;;;;;;;;;;17.50;99.90;;;;;;5035591;28;36875;-75
2022/08/19 00:56:46;;;;;;;;;;;17.60;99.90;;;;;;5038388;28;36102;-75
2022/08/19 00:59:12;;;;;;;;;;;17.60;99.90;;;;;;5031938;28;37742;-76
2022/08/19 01:01:39;;;;;;;;;;;17.60;99.90;;;;;;5032152;28;39805;-76
2022/08/19 01:04:05;;;;;;;;;;;17.50;99.90;;;;;;5039891;28;37393;-76
2022/08/19 01:06:32;;;;;;;;;;;17.50;99.90;;;;;;5040788;28;38016;-77
2022/08/19 01:08:58;;;;;;;;;;;17.50;99.90;;;;;;5054496;28;39919;-76
2022/08/19 01:11:25;;;;;;;;;;;17.50;99.90;;;;;;5039875;28;39455;-77
2022/08/19 01:13:52;;;;;;;;;;;17.50;99.90;;;;;;5053474;27;38068;-76
2022/08/19 01:16:19;;;;;;;;;;;17.50;99.90;;;;;;5062332;28;38321;-75
2022/08/19 01:18:45;;;;;;;;;;;17.50;99.90;;;;;;5051645;28;37858;-76
2022/08/19 01:21:22;;;;;;;;;;;17.50;99.90;;;;;;5038863;28;39364;-75
2022/08/19 01:23:48;;;;;;;;;;;17.50;99.90;;;;;;5036248;28;37428;-76
2022/08/19 01:26:16;;;;;;;;;;;17.50;99.90;;;;;;5031481;28;40703;-76
2022/08/19 01:28:43;;;;;;;;;;;17.50;99.90;;;;;;5036426;28;39079;-77
2022/08/19 01:31:11;;;;;;;;;;;17.40;99.90;;;;;;5038482;28;39407;-76
2022/08/19 01:33:37;;;;;;;;;;;17.40;99.90;;;;;;5039015;28;38157;-76
2022/08/19 01:36:04;;;;;;;;;;;17.40;99.90;;;;;;5040392;28;37377;-76
2022/08/19 01:38:31;;;;;;;;;;;17.40;99.90;;;;;;5038779;27;39903;-76
2022/08/19 01:40:58;;;;;;;;;;;17.40;99.90;;;;;;5039799;28;38672;-76
2022/08/19 01:43:24;;;;;;;;;;;17.40;99.90;;;;;;5039789;28;38450;-75
2022/08/19 01:45:50;;;;;;;;;;;17.40;99.90;;;;;;5038283;28;37414;-76
2022/08/19 01:48:16;;;;;;;;;;;17.30;99.90;;;;;;5042446;27;39439;-76
2022/08/19 01:50:43;;;;;;;;;;;17.30;99.90;;;;;;5057060;28;36851;-76
2022/08/19 01:53:10;;;;;;;;;;;17.30;99.90;;;;;;5035933;28;38981;-75
2022/08/19 01:55:37;;;;;;;;;;;17.30;99.90;;;;;;5035705;28;37640;-76
2022/08/19 01:58:05;;;;;;;;;;;17.30;99.90;;;;;;5036234;28;39879;-75
2022/08/19 02:00:31;;;;;;;;;;;17.40;99.90;;;;;;5044974;28;37591;-76
2022/08/19 02:02:57;;;;;;;;;;;17.40;99.90;;;;;;5043942;28;38747;-75
2022/08/19 02:05:23;;;;;;;;;;;17.40;99.90;;;;;;5041699;28;37038;-76
2022/08/19 02:07:49;;;;;;;;;;;17.40;99.90;;;;;;5041254;28;37960;-76
2022/08/19 02:10:20;;;;;;;;;;;17.40;99.90;;;;;;5041930;28;38565;-75
2022/08/19 02:12:47;;;;;;;;;;;17.30;99.90;;;;;;5038042;28;38039;-76
2022/08/19 02:15:12;;;;;;;;;;;17.40;99.90;;;;;;5044366;28;38073;-76
2022/08/19 02:17:39;;;;;;;;;;;17.40;99.90;;;;;;5041556;28;40147;-76
2022/08/19 02:20:06;;;;;;;;;;;17.40;99.90;;;;;;5068340;28;37183;-76
2022/08/19 02:22:33;;;;;;;;;;;17.40;99.90;;;;;;5043260;28;38121;-77
2022/08/19 02:24:59;;;;;;;;;;;17.40;99.90;;;;;;5072840;28;38986;-76
2022/08/19 02:27:25;;;;;;;;;;;17.40;99.90;;;;;;5033536;28;39727;-76
2022/08/19 02:29:52;;;;;;;;;;;17.40;99.90;;;;;;5034726;28;39792;-76
2022/08/19 02:32:21;;;;;;;;;;;17.40;99.90;;;;;;5036109;28;38708;-76
2022/08/19 02:34:47;;;;;;;;;;;17.40;99.90;;;;;;5038079;28;38444;-75
2022/08/19 02:39:58;;;;;;;;;;;17.50;99.90;;;;;;5037190;28;38605;-75
2022/08/19 02:42:24;;;;;;;;;;;17.50;99.90;;;;;;5038653;28;38521;-75
2022/08/19 02:44:51;;;;;;;;;;;17.50;99.90;;;;;;5039919;28;38599;-75
2022/08/19 02:47:18;;;;;;;;;;;17.50;99.90;;;;;;5034896;28;40456;-75
2022/08/19 02:49:44;;;;;;;;;;;17.40;99.90;;;;;;5036881;28;38658;-75
2022/08/19 02:52:11;;;;;;;;;;;17.40;99.90;;;;;;5035659;28;38596;-76
2022/08/19 02:54:38;;;;;;;;;;;17.30;99.90;;;;;;5039812;28;38173;-76
2022/08/19 02:57:04;;;;;;;;;;;17.30;99.90;;;;;;5037756;28;38994;-77
2022/08/19 02:59:30;;;;;;;;;;;17.30;99.90;;;;;;5034245;28;38834;-76
2022/08/19 03:01:56;;;;;;;;;;;17.30;99.90;;;;;;5040810;28;37336;-76
2022/08/19 03:04:24;;;;;;;;;;;17.30;99.90;;;;;;5037842;28;37227;-77
2022/08/19 03:06:50;;;;;;;;;;;17.50;99.90;;;;;;5036000;28;39684;-76
2022/08/19 03:09:17;;;;;;;;;;;17.50;99.90;;;;;;5041134;27;38650;-76
2022/08/19 03:11:43;;;;;;;;;;;17.50;99.90;;;;;;5040801;28;39274;-76
2022/08/19 03:14:09;;;;;;;;;;;17.50;99.90;;;;;;5053263;27;37433;-76
2022/08/19 03:16:41;;;;;;;;;;;17.60;99.90;;;;;;5054114;27;39749;-76
2022/08/19 03:19:08;;;;;;;;;;;17.60;99.90;;;;;;5038760;27;38889;-78
2022/08/19 03:21:34;;;;;;;;;;;17.60;99.90;;;;;;5040133;28;38473;-76
2022/08/19 03:24:01;;;;;;;;;;;17.60;99.90;;;;;;5043568;28;37768;-77
2022/08/19 03:26:28;;;;;;;;;;;17.60;99.90;;;;;;5041243;28;47358;-76
2022/08/19 03:28:54;;;;;;;;;;;17.60;99.90;;;;;;5041157;28;39432;-76
2022/08/19 03:31:23;;;;;;;;;;;17.60;99.90;;;;;;5043313;28;36596;-76
2022/08/19 03:33:50;;;;;;;;;;;17.60;99.90;;;;;;5038550;28;37348;-76
2022/08/19 03:36:20;;;;;;;;;;;17.50;99.90;;;;;;5042525;28;38469;-77
2022/08/19 03:38:48;;;;;;;;;;;17.60;99.90;;;;;;5044858;27;38560;-76
2022/08/19 03:41:15;;;;;;;;;;;17.60;99.90;;;;;;5045024;28;36568;-77
2022/08/19 03:43:42;;;;;;;;;;;17.60;99.90;;;;;;5041404;28;37243;-76
2022/08/19 03:46:09;;;;;;;;;;;17.60;99.90;;;;;;5043453;28;38896;-76
2022/08/19 03:48:36;;;;;;;;;;;17.50;99.90;;;;;;5056761;28;39616;-77
2022/08/19 03:51:02;;;;;;;;;;;17.50;99.90;;;;;;5059253;28;38952;-77
2022/08/19 03:53:29;;;;;;;;;;;17.50;99.90;;;;;;5044187;28;36182;-76
2022/08/19 03:55:56;;;;;;;;;;;17.50;99.90;;;;;;5073451;28;40622;-76
2022/08/19 03:58:22;;;;;;;;;;;17.50;99.90;;;;;;5043836;28;38466;-76
2022/08/19 04:00:48;;;;;;;;;;;17.60;99.90;;;;;;5040895;28;38143;-77
2022/08/19 04:03:14;;;;;;;;;;;17.60;99.90;;;;;;5039541;28;35900;-76
2022/08/19 04:05:40;;;;;;;;;;;17.60;99.90;;;;;;5042945;28;39516;-76
2022/08/19 04:08:06;;;;;;;;;;;17.70;99.90;;;;;;5044781;28;39300;-76
2022/08/19 04:10:36;;;;;;;;;;;17.70;99.90;;;;;;5039047;28;37975;-76
2022/08/19 04:13:05;;;;;;;;;;;17.70;99.90;;;;;;5039332;28;37138;-76
2022/08/19 04:15:38;;;;;;;;;;;17.70;99.90;;;;;;5075084;28;20429;-76
2022/08/19 04:18:07;;;;;;;;;;;17.70;99.90;;;;;;5040173;28;39440;-77
2022/08/19 04:20:38;;;;;;;;;;;17.80;99.90;;;;;;5041594;28;38315;-77
2022/08/19 04:23:04;;;;;;;;;;;17.80;99.90;;;;;;5037338;28;37544;-77
2022/08/19 04:25:34;;;;;;;;;;;17.80;99.90;;;;;;5044014;28;39883;-78
2022/08/19 04:28:00;;;;;;;;;;;17.90;99.90;;;;;;5055080;28;37156;-79
2022/08/19 04:30:26;;;;;;;;;;;17.90;99.90;;;;;;5055631;27;40267;-76
2022/08/19 04:32:52;;;;;;;;;;;17.90;99.90;;;;;;5064703;27;36876;-76
2022/08/19 04:35:18;;;;;;;;;;;17.90;99.90;;;;;;5060268;28;39272;-75
2022/08/19 04:37:44;;;;;;;;;;;18.00;99.90;;;;;;5059620;28;38709;-75
2022/08/19 04:42:54;;;;;;;;;;;18.00;99.90;;;;;;5057596;27;37610;-76
2022/08/19 04:45:21;;;;;;;;;;;18.10;99.90;;;;;;5056439;27;38521;-76
2022/08/19 04:47:47;;;;;;;;;;;18.10;99.90;;;;;;5054492;27;37682;-76
2022/08/19 04:50:13;;;;;;;;;;;18.10;99.90;;;;;;5054704;27;39455;-76
2022/08/19 04:52:42;;;;;;;;;;;18.10;99.90;;;;;;5051281;27;38312;-75
2022/08/19 04:55:09;;;;;;;;;;;18.10;99.90;;;;;;5064226;28;40672;-77
2022/08/19 04:57:39;;;;;;;;;;;18.20;99.90;;;;;;5053234;27;37824;-77
2022/08/19 05:00:07;;;;;;;;;;;18.20;99.90;;;;;;5051886;27;38470;-77
2022/08/19 05:02:33;;;;;;;;;;;18.20;99.90;;;;;;5061575;28;37987;-77
2022/08/19 05:05:00;;;;;;;;;;;18.20;99.90;;;;;;5061312;28;40902;-76
2022/08/19 05:07:26;;;;;;;;;;;18.20;99.90;;;;;;5063433;28;38856;-78
2022/08/19 05:09:52;;;;;;;;;;;18.20;99.90;;;;;;5065686;27;38339;-76
2022/08/19 05:12:19;;;;;;;;;;;18.20;99.90;;;;;;5058048;27;35662;-76
2022/08/19 05:14:47;;;;;;;;;;;18.20;99.90;;;;;;5064235;28;39939;-76
2022/08/19 05:17:14;;;;;;;;;;;18.30;99.90;;;;;;5054658;27;40066;-76
2022/08/19 05:22:43;;;;;;;;;;;18.20;99.90;;;;;;5021450;28;50212;-77
2022/08/19 05:25:14;;;;;;;;;;;18.20;99.90;;;;;;5050450;28;39082;-77
2022/08/19 05:27:41;;;;;;;;;;;18.20;99.90;;;;;;5055214;28;38684;-76
2022/08/19 05:30:07;;;;;;;;;;;18.30;99.90;;;;;;5052810;28;39150;-76
2022/08/19 05:32:33;;;;;;;;;;;18.20;99.90;;;;;;5035425;28;36798;-76
2022/08/19 05:34:59;;;;;;;;;;;18.30;99.90;;;;;;5040786;28;38596;-76
2022/08/19 05:37:27;;;;;;;;;;;18.30;99.90;;;;;;5043034;28;38807;-75
2022/08/19 05:39:54;;;;;;;;;;;18.40;99.90;;;;;;5050628;28;36331;-75
2022/08/19 05:42:21;;;;;;;;;;;18.50;99.90;;;;;;5031882;28;37252;-75
2022/08/19 05:44:48;;;;;;;;;;;18.50;99.90;;;;;;5040675;28;39778;-75
2022/08/19 05:47:15;;;;;;;;;;;18.40;99.90;;;;;;5046655;28;38765;-76
2022/08/19 05:49:41;;;;;;;;;;;18.50;99.90;;;;;;5028304;28;39839;-76
2022/08/19 05:52:10;;;;;;;;;;;18.50;99.90;;;;;;5041034;28;38378;-77
2022/08/19 05:54:37;;;;;;;;;;;18.60;99.90;;;;;;5078378;28;37814;-76
2022/08/19 05:57:03;;;;;;;;;;;18.60;99.90;;;;;;5036277;28;39098;-77
2022/08/19 05:59:29;;;;;;;;;;;18.60;99.90;;;;;;5036591;28;36429;-76
2022/08/19 06:01:56;;;;;;;;;;;18.70;99.90;;;;;;5037298;28;37884;-76
2022/08/19 06:04:22;;;;;;;;;;;18.70;99.90;;;;;;5036154;28;41083;-75
2022/08/19 06:06:51;;;;;;;;;;;18.80;99.90;;;;;;5033589;28;39224;-76
2022/08/19 06:09:18;;;;;;;;;;;18.80;99.90;;;;;;5035197;28;38381;-76
2022/08/19 06:11:46;;;;;;;;;;;18.90;99.90;;;;;;5037054;28;36838;-77
2022/08/19 06:14:13;;;;;;;;;;;18.80;99.90;;;;;;5035394;28;39382;-76
2022/08/19 06:16:40;;;;;;;;;;;18.90;99.90;;;;;;5033825;28;38146;-75
2022/08/19 06:19:08;;;;;;;;;;;18.90;99.90;;;;;;5036853;28;38733;-76
2022/08/19 06:21:36;;;;;;;;;;;18.90;99.90;;;;;;5032365;28;37812;-76
2022/08/19 06:24:04;;;;;;;;;;;19.00;99.90;;;;;;5024768;28;39080;-75
2022/08/19 06:26:30;;;;;;;;;;;19.10;99.90;;;;;;5031230;28;38188;-76
2022/08/19 06:28:57;;;;;;;;;;;19.10;99.90;;;;;;5030107;28;38355;-76
2022/08/19 06:31:24;;;;;;;;;;;19.20;99.90;;;;;;5031588;28;38176;-75
2022/08/19 06:33:50;;;;;;;;;;;19.20;99.90;;;;;;5029243;28;39744;-76
2022/08/19 06:36:17;;;;;;;;;;;19.20;99.90;;;;;;5029575;28;39172;-76
2022/08/19 06:38:43;;;;;;;;;;;19.30;99.90;;;;;;5039867;28;39368;-76
2022/08/19 06:41:09;;;;;;;;;;;19.40;99.90;;;;;;5041870;28;35102;-77
2022/08/19 06:43:36;;;;;;;;;;;19.40;99.90;;;;;;5038384;28;39290;-76
2022/08/19 06:46:03;;;;;;;;;;;19.50;99.90;;;;;;5036363;28;39588;-76
2022/08/19 06:48:29;;;;;;;;;;;19.50;99.90;;;;;;5039256;28;39555;-76
2022/08/19 06:50:55;;;;;;;;;;;19.50;99.90;;;;;;5034615;28;37600;-76
2022/08/19 06:53:21;;;;;;;;;;;19.50;99.90;;;;;;5042265;28;38749;-76
2022/08/19 06:55:47;;;;;;;;;;;19.50;99.90;;;;;;5043060;28;39031;-75
2022/08/19 06:58:14;;;;;;;;;;;19.60;99.90;;;;;;5040435;28;37402;-77
2022/08/19 07:00:40;;;;;;;;;;;19.70;99.90;;;;;;5074962;28;37491;-75
2022/08/19 07:03:06;;;;;;;;;;;19.70;99.90;;;;;;5040710;28;39844;-75
2022/08/19 07:05:32;;;;;;;;;;;19.80;99.90;;;;;;5038913;28;39661;-75
2022/08/19 07:07:58;;;;;;;;;;;19.90;99.90;;;;;;5073576;27;36458;-75
2022/08/19 07:10:24;;;;;;;;;;;19.90;99.90;;;;;;5044656;28;37707;-76
2022/08/19 07:12:51;;;;;;;;;;;20.10;99.90;;;;;;5035829;28;41035;-76
2022/08/19 07:15:17;;;;;;;;;;;20.10;99.90;;;;;;5044371;28;38539;-76
2022/08/19 07:17:43;;;;;;;;;;;20.10;99.90;;;;;;5041858;28;37879;-76
2022/08/19 07:20:09;;;;;;;;;;;20.00;99.90;;;;;;5040316;28;38013;-76
2022/08/19 07:22:38;;;;;;;;;;;20.10;99.90;;;;;;5043082;27;38150;-76
2022/08/19 07:25:05;;;;;;;;;;;20.10;99.90;;;;;;5033452;28;37758;-75
2022/08/19 07:27:31;;;;;;;;;;;20.10;99.90;;;;;;5019030;28;37892;-76
2022/08/19 07:29:57;;;;;;;;;;;20.10;99.90;;;;;;5021658;28;38232;-76
2022/08/19 07:32:26;;;;;;;;;;;20.10;99.90;;;;;;5017512;28;39757;-75
2022/08/19 07:34:52;;;;;;;;;;;20.10;99.90;;;;;;5020409;28;38391;-77
2022/08/19 07:37:18;;;;;;;;;;;20.20;99.90;;;;;;5021637;28;36229;-77
2022/08/19 07:39:44;;;;;;;;;;;20.20;99.90;;;;;;5018512;28;36976;-78
2022/08/19 07:42:10;;;;;;;;;;;20.20;99.90;;;;;;5022242;28;39132;-78
2022/08/19 07:44:37;;;;;;;;;;;20.40;99.90;;;;;;5018605;28;38524;-78
2022/08/19 07:47:03;;;;;;;;;;;20.60;99.90;;;;;;5017350;28;38724;-77
2022/08/19 07:49:29;;;;;;;;;;;20.60;99.90;;;;;;5043598;28;38472;-77
2022/08/19 07:51:55;;;;;;;;;;;20.70;99.90;;;;;;5015855;28;39813;-78
2022/08/19 07:54:22;;;;;;;;;;;20.80;99.90;;;;;;5016962;28;37942;-78
2022/08/19 07:56:50;;;;;;;;;;;20.70;99.90;;;;;;5055195;28;38006;-78
2022/08/19 07:59:17;;;;;;;;;;;20.90;99.90;;;;;;5025677;28;35854;-77
2022/08/19 08:01:44;;;;;;;;;;;20.90;99.90;;;;;;5020906;28;38111;-78
2022/08/19 08:09:40;;;;;;;;;;;20.90;99.90;;;;;;5021730;28;49222;-77
2022/08/19 08:12:06;;;;;;;;;;;21.40;99.90;;;;;;5018218;28;39234;-80
2022/08/19 08:14:34;;;;;;;;;;;21.60;99.90;;;;;;5019496;28;39320;-78
2022/08/19 08:17:03;;;;;;;;;;;21.60;99.90;;;;;;5025532;28;40568;-79
2022/08/19 08:19:30;;;;;;;;;;;21.70;99.90;;;;;;5026633;28;47846;-79
2022/08/19 08:21:57;;;;;;;;;;;22.00;99.90;;;;;;5031412;28;40924;-78
2022/08/19 08:24:24;;;;;;;;;;;21.80;99.90;;;;;;5025532;28;39301;-78
2022/08/19 08:26:49;;;;;;;;;;;22.00;99.90;;;;;;5022908;28;38380;-79
2022/08/19 08:29:15;;;;;;;;;;;22.10;99.90;;;;;;5027149;28;36693;-78
2022/08/19 08:31:42;;;;;;;;;;;22.20;99.90;;;;;;5028239;28;41632;-78
2022/08/19 08:34:08;;;;;;;;;;;22.20;99.90;;;;;;5027014;28;38102;-82
2022/08/19 08:36:41;;;;;;;;;;;22.20;99.90;;;;;;5023866;28;39424;-79
2022/08/19 08:39:09;;;;;;;;;;;22.20;99.90;;;;;;5045211;28;37598;-79
2022/08/19 08:41:43;;;;;;;;;;;22.30;99.90;;;;;;5076212;27;37950;-79
2022/08/19 08:44:23;;;;;;;;;;;22.40;99.90;;;;;;5039174;28;38968;-79
2022/08/19 08:46:52;;;;;;;;;;;22.00;99.90;;;;;;5066846;27;38023;-78
2022/08/19 08:49:24;;;;;;;;;;;22.00;99.90;;;;;;5029842;28;36076;-78
2022/08/19 08:52:09;;;;;;;;;;;21.90;99.90;;;;;;5017060;28;39980;-78
2022/08/19 08:54:40;;;;;;;;;;;22.00;99.90;;;;;;5032225;28;48288;-78
2022/08/19 08:57:21;;;;;;;;;;;22.00;99.90;;;;;;5029063;28;40692;-79
2022/08/19 08:59:51;;;;;;;;;;;22.00;99.90;;;;;;5030245;28;37679;-78
2022/08/19 09:02:18;;;;;;;;;;;22.00;99.90;;;;;;5038276;27;39296;-78
2022/08/19 09:04:44;;;;;;;;;;;22.00;99.90;;;;;;5036205;27;38801;-78
2022/08/19 09:07:17;;;;;;;;;;;22.10;99.90;;;;;;5029438;28;37800;-79
2022/08/19 09:09:46;;;;;;;;;;;22.40;99.90;;;;;;5027281;28;36864;-78
2022/08/19 09:12:20;;;;;;;;;;;22.80;99.90;;;;;;5028686;28;39430;-79
2022/08/19 09:15:04;;;;;;;;;;;22.80;99.90;;;;;;5029822;28;38625;-78
2022/08/19 09:17:33;;;;;;;;;;;22.70;99.90;;;;;;5058277;27;37794;-78
2022/08/19 09:20:05;;;;;;;;;;;22.90;99.90;;;;;;5022284;28;37774;-79
2022/08/19 09:22:31;;;;;;;;;;;22.80;99.90;;;;;;5023819;28;48979;-80
2022/08/19 09:24:57;;;;;;;;;;;22.50;99.90;;;;;;5025121;28;39504;-78
2022/08/19 09:27:25;;;;;;;;;;;22.40;99.90;;;;;;5027831;28;37909;-78
2022/08/19 09:29:51;;;;;;;;;;;22.30;99.90;;;;;;5029304;28;37077;-79
2022/08/19 09:32:17;;;;;;;;;;;22.20;99.90;;;;;;5025834;28;37675;-77
2022/08/19 09:34:44;;;;;;;;;;;22.30;99.90;;;;;;5028095;28;39018;-78
2022/08/19 09:37:10;;;;;;;;;;;22.30;99.90;;;;;;5033725;28;38716;-78
2022/08/19 09:39:36;;;;;;;;;;;22.40;99.90;;;;;;5050004;28;36323;-78
2022/08/19 09:42:03;;;;;;;;;;;22.60;99.90;;;;;;5049130;27;39181;-78
2022/08/19 09:44:29;;;;;;;;;;;22.70;99.90;;;;;;5026499;28;40291;-79
2022/08/19 09:46:55;;;;;;;;;;;22.70;99.90;;;;;;5025997;28;36628;-78
2022/08/19 09:49:21;;;;;;;;;;;22.90;99.90;;;;;;5028213;28;37058;-80
2022/08/19 09:51:51;;;;;;;;;;;22.90;99.90;;;;;;5024821;28;40384;-79
2022/08/19 09:54:17;;;;;;;;;;;23.10;99.90;;;;;;5031093;27;39086;-79
2022/08/19 09:56:44;;;;;;;;;;;23.20;99.90;;;;;;5024342;28;38304;-80
2022/08/19 09:59:11;;;;;;;;;;;23.30;99.90;;;;;;5023725;28;38589;-79
2022/08/19 10:01:37;;;;;;;;;;;23.70;99.90;;;;;;5027640;28;40756;-81
2022/08/19 10:04:09;;;;;;;;;;;24.10;99.90;;;;;;5024223;28;39197;-78
2022/08/19 10:06:37;;;;;;;;;;;24.20;99.90;;;;;;5029584;28;38687;-79
2022/08/19 10:09:06;;;;;;;;;;;24.10;99.90;;;;;;5019361;28;37298;-79
2022/08/19 10:11:32;;;;;;;;;;;24.10;99.90;;;;;;5013736;28;40246;-79
2022/08/19 10:13:59;;;;;;;;;;;24.10;99.90;;;;;;5024652;28;36966;-79
2022/08/19 10:16:25;;;;;;;;;;;24.00;99.90;;;;;;5029011;28;39418;-79
2022/08/19 10:18:52;;;;;;;;;;;24.10;99.90;;;;;;5031097;28;36894;-78
2022/08/19 10:21:18;;;;;;;;;;;24.30;99.90;;;;;;5038972;28;40508;-78
2022/08/19 10:23:45;;;;;;;;;;;24.40;99.90;;;;;;5042607;28;37654;-78
2022/08/19 10:26:12;;;;;;;;;;;24.40;99.90;;;;;;5045179;28;37989;-79
2022/08/19 10:28:38;;;;;;;;;;;23.80;99.90;;;;;;5034675;28;35948;-79
2022/08/19 10:31:08;;;;;;;;;;;23.70;99.90;;;;;;5041292;28;39769;-79
2022/08/19 10:33:35;;;;;;;;;;;23.60;99.90;;;;;;5034243;28;38594;-80
2022/08/19 10:36:03;;;;;;;;;;;23.60;99.90;;;;;;5041179;28;36882;-79
2022/08/19 10:38:29;;;;;;;;;;;23.80;99.90;;;;;;5037670;28;39719;-79
2022/08/19 10:40:55;;;;;;;;;;;24.20;99.90;;;;;;5039954;28;39247;-79
2022/08/19 10:43:21;;;;;;;;;;;24.60;99.90;;;;;;5037364;28;39156;-79
2022/08/19 10:45:56;;;;;;;;;;;25.00;99.90;;;;;;5036116;28;36155;-79
2022/08/19 10:48:22;;;;;;;;;;;25.30;99.90;;;;;;5038741;28;37665;-80
2022/08/19 10:53:33;;;;;;;;;;;25.40;99.90;;;;;;5065525;27;49476;-77
2022/08/19 10:58:44;;;;;;;;;;;25.10;99.90;;;;;;5065770;27;49419;-78
2022/08/19 11:01:10;;;;;;;;;;;24.90;99.90;;;;;;5063805;28;40554;-78
2022/08/19 11:03:36;;;;;;;;;;;24.50;99.90;;;;;;5060678;27;38874;-78
2022/08/19 11:06:03;;;;;;;;;;;24.50;99.90;;;;;;5056895;27;37832;-78
2022/08/19 11:08:30;;;;;;;;;;;24.30;99.90;;;;;;5065200;28;38634;-79
2022/08/19 11:11:00;;;;;;;;;;;24.20;99.90;;;;;;5062637;28;39759;-79
2022/08/19 11:13:27;;;;;;;;;;;24.10;99.90;;;;;;5094195;27;39096;-79
2022/08/19 11:15:56;;;;;;;;;;;24.40;99.90;;;;;;5067566;27;37438;-79
2022/08/19 11:18:22;;;;;;;;;;;24.40;99.90;;;;;;5060127;27;37163;-79
2022/08/19 11:20:48;;;;;;;;;;;24.60;99.90;;;;;;5067389;27;38269;-80
2022/08/19 11:23:14;;;;;;;;;;;24.90;99.90;;;;;;5058664;28;38907;-78
2022/08/19 11:25:41;;;;;;;;;;;25.10;99.90;;;;;;5060922;28;39417;-78
2022/08/19 11:28:07;;;;;;;;;;;25.10;99.90;;;;;;5067437;27;37263;-78
2022/08/19 11:30:33;;;;;;;;;;;25.00;99.90;;;;;;5072876;27;38951;-78
2022/08/19 11:33:00;;;;;;;;;;;24.90;99.90;;;;;;5062022;28;38889;-79
2022/08/19 11:35:26;;;;;;;;;;;24.90;99.90;;;;;;5045270;28;47704;-77
2022/08/19 11:37:53;;;;;;;;;;;24.60;99.90;;;;;;5047957;28;38582;-79
2022/08/19 11:40:19;;;;;;;;;;;24.60;99.90;;;;;;5045072;28;39160;-79
2022/08/19 11:42:55;;;;;;;;;;;24.60;99.90;;;;;;5095998;28;39178;-78
2022/08/19 11:45:21;;;;;;;;;;;24.50;99.90;;;;;;5053409;28;38000;-79
2022/08/19 11:47:48;;;;;;;;;;;24.60;99.90;;;;;;5043777;28;38910;-79
2022/08/19 11:50:15;;;;;;;;;;;24.90;99.90;;;;;;5044145;27;38095;-79
2022/08/19 11:52:41;;;;;;;;;;;25.10;99.90;;;;;;5040770;28;39966;-79
2022/08/19 11:55:07;;;;;;;;;;;25.30;99.90;;;;;;5042611;27;38880;-79
2022/08/19 11:57:33;;;;;;;;;;;25.30;99.90;;;;;;5044521;28;36020;-80
2022/08/19 11:59:59;;;;;;;;;;;25.10;99.90;;;;;;5039814;28;39113;-79
2022/08/19 12:02:25;;;;;;;;;;;24.40;99.90;;;;;;5040391;28;39878;-79
2022/08/19 12:04:51;;;;;;;;;;;24.20;99.90;;;;;;5046160;28;37872;-79
2022/08/19 12:07:17;;;;;;;;;;;24.00;99.90;;;;;;5039357;28;36215;-80
2022/08/19 12:09:43;;;;;;;;;;;23.40;99.90;;;;;;5041671;28;39424;-81
2022/08/19 12:12:09;;;;;;;;;;;23.10;99.90;;;;;;5044918;28;38907;-81
2022/08/19 12:14:35;;;;;;;;;;;22.90;99.90;;;;;;5040810;28;38115;-80
2022/08/19 12:17:02;;;;;;;;;;;22.80;99.90;;;;;;5073974;27;37117;-80
2022/08/19 12:19:28;;;;;;;;;;;23.00;99.90;;;;;;5038574;28;40200;-79
2022/08/19 12:21:59;;;;;;;;;;;23.30;99.90;;;;;;5038445;28;37736;-80
2022/08/19 12:24:25;;;;;;;;;;;23.40;99.90;;;;;;5032609;28;38055;-82
2022/08/19 12:26:51;;;;;;;;;;;23.40;99.90;;;;;;5038769;28;37266;-81
2022/08/19 12:29:17;;;;;;;;;;;23.40;99.90;;;;;;5040762;28;40835;-81
2022/08/19 12:31:43;;;;;;;;;;;23.30;99.90;;;;;;5037303;28;39515;-81
2022/08/19 12:34:09;;;;;;;;;;;23.30;99.90;;;;;;5042756;28;38979;-81
2022/08/19 12:36:35;;;;;;;;;;;23.80;99.90;;;;;;5053891;28;35905;-81
2022/08/19 12:39:01;;;;;;;;;;;24.10;99.90;;;;;;5062027;28;41623;-81
2022/08/19 12:41:27;;;;;;;;;;;24.20;99.90;;;;;;5029841;28;47447;-81
2022/08/19 12:43:53;;;;;;;;;;;23.90;99.90;;;;;;5036733;28;38163;-81
2022/08/19 12:46:19;;;;;;;;;;;24.00;99.90;;;;;;5033185;28;38760;-81
2022/08/19 12:48:45;;;;;;;;;;;24.30;99.90;;;;;;5033082;28;37788;-81
2022/08/19 12:51:13;;;;;;;;;;;24.60;99.90;;;;;;5033928;28;40180;-80
2022/08/19 12:53:42;;;;;;;;;;;24.90;99.90;;;;;;5034795;28;38558;-78
2022/08/19 12:56:09;;;;;;;;;;;25.00;99.90;;;;;;5041435;28;38007;-80
2022/08/19 12:58:34;;;;;;;;;;;25.00;99.90;;;;;;5043252;28;39925;-80
2022/08/19 13:01:10;;;;;;;;;;;24.90;99.90;;;;;;5035598;28;37876;-79
2022/08/19 13:03:36;;;;;;;;;;;24.90;99.90;;;;;;5034626;28;48916;-79
2022/08/19 13:06:02;;;;;;;;;;;24.90;99.90;;;;;;5042591;28;36142;-79
2022/08/19 13:08:28;;;;;;;;;;;25.10;99.90;;;;;;5051188;28;40195;-79
2022/08/19 13:10:55;;;;;;;;;;;25.20;99.90;;;;;;5040591;28;39192;-79
2022/08/19 13:13:21;;;;;;;;;;;25.30;99.90;;;;;;5039518;28;39184;-79
2022/08/19 13:15:47;;;;;;;;;;;25.30;99.90;;;;;;5042252;28;36949;-79
2022/08/19 13:18:14;;;;;;;;;;;25.20;99.90;;;;;;5031302;28;40023;-79
2022/08/19 13:20:43;;;;;;;;;;;25.30;99.90;;;;;;5041200;28;39126;-79
2022/08/19 13:23:09;;;;;;;;;;;25.10;99.90;;;;;;5048986;27;36320;-79
2022/08/19 13:25:36;;;;;;;;;;;25.00;99.90;;;;;;5054973;28;38398;-79
2022/08/19 13:28:02;;;;;;;;;;;24.90;99.90;;;;;;5045038;28;40353;-80
2022/08/19 13:33:33;;;;;;;;;;;24.50;99.90;;;;;;5058658;28;49052;-79
2022/08/19 13:36:00;;;;;;;;;;;24.50;99.90;;;;;;5042523;28;38452;-79
2022/08/19 13:38:26;;;;;;;;;;;24.50;99.90;;;;;;5050840;28;39875;-78
2022/08/19 13:40:54;;;;;;;;;;;24.40;99.90;;;;;;5057661;28;39943;-78
2022/08/19 13:43:22;;;;;;;;;;;24.10;99.90;;;;;;5056275;28;38498;-77
2022/08/19 13:45:48;;;;;;;;;;;23.50;99.90;;;;;;5058879;28;38026;-76
2022/08/19 13:48:15;;;;;;;;;;;22.90;99.90;;;;;;5063088;28;39433;-78
2022/08/19 13:50:42;;;;;;;;;;;22.60;99.90;;;;;;5065530;28;38891;-78
2022/08/19 13:53:09;;;;;;;;;;;22.30;99.90;;;;;;5055256;28;38888;-77
2022/08/19 13:55:37;;;;;;;;;;;22.20;99.90;;;;;;5057454;28;37312;-78
2022/08/19 13:58:03;;;;;;;;;;;22.10;99.90;;;;;;5057136;28;38924;-78
2022/08/19 14:00:31;;;;;;;;;;;22.10;99.90;;;;;;5061606;28;37236;-78
2022/08/19 14:02:57;;;;;;;;;;;22.10;99.90;;;;;;5058803;28;37985;-78
2022/08/19 14:05:23;;;;;;;;;;;22.10;99.90;;;;;;5055504;28;37028;-78
2022/08/19 14:07:50;;;;;;;;;;;22.20;99.90;;;;;;5055889;28;38028;-78
2022/08/19 14:10:16;;;;;;;;;;;22.20;99.90;;;;;;5060759;28;38420;-78
2022/08/19 14:12:42;;;;;;;;;;;22.10;99.90;;;;;;5059445;28;36696;-78
2022/08/19 14:15:09;;;;;;;;;;;22.00;99.90;;;;;;5055971;28;36933;-78
2022/08/19 14:17:37;;;;;;;;;;;22.00;99.90;;;;;;5059412;28;39101;-77
2022/08/19 14:20:08;;;;;;;;;;;22.00;99.90;;;;;;5058931;28;39336;-78
2022/08/19 14:22:34;;;;;;;;;;;22.10;99.90;;;;;;5058886;28;47388;-78
2022/08/19 14:25:00;;;;;;;;;;;22.40;99.90;;;;;;5059509;28;37195;-79
2022/08/19 14:27:26;;;;;;;;;;;22.60;99.90;;;;;;5056126;28;39522;-79
2022/08/19 14:29:52;;;;;;;;;;;22.80;99.90;;;;;;5061547;27;39322;-79
2022/08/19 14:32:18;;;;;;;;;;;22.80;99.90;;;;;;5061503;28;38901;-78
2022/08/19 14:34:47;;;;;;;;;;;22.80;99.90;;;;;;5063210;28;36549;-78
2022/08/19 14:37:14;;;;;;;;;;;22.60;99.90;;;;;;5069195;28;39238;-78